sensor_id;sensor_type;location;lat;lon;timestamp;P1;durP1;ratioP1;P2;durP2;ratioP2
13202;SDS011;6666;51.626;7.530;2023-02-01T00:01:24;18.63;;;6.00;;
13202;SDS011;6666;51.626;7.530;2023-02-01T00:03:53;14.23;;;5.95;;
13202;SDS011;6666;51.626;7.530;2023-02-01T00:06:22;18.70;;;6.82;;
13202;SDS011;6666;51.626;7.530;2023-02-01T00:08:51;21.17;;;6.10;;
13202;SDS011;6666;51.626;7.530;2023-02-01T00:11:20;18.60;;;6.28;;
13202;SDS011;6666;51.626;7.530;2023-02-01T00:13:50;15.93;;;6.18;;
13202;SDS011;6666;51.626;7.530;2023-02-01T00:16:19;17.63;;;6.60;;
13202;SDS011;6666;51.626;7.530;2023-02-01T00:18:49;19.38;;;5.85;;
13202;SDS011;6666;51.626;7.530;2023-02-01T00:21:20;22.33;;;6.53;;
13202;SDS011;6666;51.626;7.530;2023-02-01T00:23:49;18.17;;;6.63;;
13202;SDS011;6666;51.626;7.530;2023-02-01T00:26:18;12.57;;;6.10;;
13202;SDS011;6666;51.626;7.530;2023-02-01T00:28:47;17.20;;;6.50;;
13202;SDS011;6666;51.626;7.530;2023-02-01T00:31:15;21.27;;;6.50;;
13202;SDS011;6666;51.626;7.530;2023-02-01T00:33:46;23.67;;;6.10;;
13202;SDS011;6666;51.626;7.530;2023-02-01T00:36:15;18.98;;;6.10;;
13202;SDS011;6666;51.626;7.530;2023-02-01T00:38:45;20.35;;;5.50;;
13202;SDS011;6666;51.626;7.530;2023-02-01T00:41:13;16.45;;;5.75;;
13202;SDS011;6666;51.626;7.530;2023-02-01T00:43:43;14.55;;;5.30;;
13202;SDS011;6666;51.626;7.530;2023-02-01T00:46:12;13.18;;;5.43;;
13202;SDS011;6666;51.626;7.530;2023-02-01T00:48:42;19.25;;;5.90;;
13202;SDS011;6666;51.626;7.530;2023-02-01T00:51:11;11.23;;;4.82;;
13202;SDS011;6666;51.626;7.530;2023-02-01T00:53:41;15.90;;;4.85;;
13202;SDS011;6666;51.626;7.530;2023-02-01T00:56:11;16.40;;;5.27;;
13202;SDS011;6666;51.626;7.530;2023-02-01T00:58:39;18.80;;;5.00;;
13202;SDS011;6666;51.626;7.530;2023-02-01T01:01:11;11.65;;;4.20;;
13202;SDS011;6666;51.626;7.530;2023-02-01T01:03:44;14.30;;;4.00;;
13202;SDS011;6666;51.626;7.530;2023-02-01T01:06:14;15.75;;;3.70;;
13202;SDS011;6666;51.626;7.530;2023-02-01T01:08:44;17.55;;;3.90;;
13202;SDS011;6666;51.626;7.530;2023-02-01T01:11:14;10.93;;;3.88;;
13202;SDS011;6666;51.626;7.530;2023-02-01T01:13:45;13.88;;;3.50;;
13202;SDS011;6666;51.626;7.530;2023-02-01T01:16:14;12.95;;;3.78;;
13202;SDS011;6666;51.626;7.530;2023-02-01T01:18:43;9.75;;;3.10;;
13202;SDS011;6666;51.626;7.530;2023-02-01T01:21:13;9.82;;;2.60;;
13202;SDS011;6666;51.626;7.530;2023-02-01T01:23:42;16.30;;;3.13;;
13202;SDS011;6666;51.626;7.530;2023-02-01T01:26:12;15.40;;;4.20;;
13202;SDS011;6666;51.626;7.530;2023-02-01T01:28:44;9.20;;;2.60;;
13202;SDS011;6666;51.626;7.530;2023-02-01T01:31:14;16.30;;;2.85;;
13202;SDS011;6666;51.626;7.530;2023-02-01T01:33:47;12.73;;;2.63;;
13202;SDS011;6666;51.626;7.530;2023-02-01T01:36:16;14.98;;;3.30;;
13202;SDS011;6666;51.626;7.530;2023-02-01T01:38:44;12.07;;;2.40;;
13202;SDS011;6666;51.626;7.530;2023-02-01T01:41:16;12.93;;;2.53;;
13202;SDS011;6666;51.626;7.530;2023-02-01T01:43:51;7.27;;;2.40;;
13202;SDS011;6666;51.626;7.530;2023-02-01T01:46:23;14.02;;;2.25;;
13202;SDS011;6666;51.626;7.530;2023-02-01T01:48:58;10.98;;;3.03;;
13202;SDS011;6666;51.626;7.530;2023-02-01T01:51:32;16.20;;;3.40;;
13202;SDS011;6666;51.626;7.530;2023-02-01T01:54:05;13.83;;;2.63;;
13202;SDS011;6666;51.626;7.530;2023-02-01T01:56:40;9.63;;;2.40;;
13202;SDS011;6666;51.626;7.530;2023-02-01T01:59:09;16.05;;;3.10;;
13202;SDS011;6666;51.626;7.530;2023-02-01T02:01:38;10.60;;;2.10;;
13202;SDS011;6666;51.626;7.530;2023-02-01T02:04:07;13.50;;;3.00;;
13202;SDS011;6666;51.626;7.530;2023-02-01T02:06:38;9.82;;;2.60;;
13202;SDS011;6666;51.626;7.530;2023-02-01T02:09:24;12.88;;;2.33;;
13202;SDS011;6666;51.626;7.530;2023-02-01T02:12:11;14.05;;;2.60;;
13202;SDS011;6666;51.626;7.530;2023-02-01T02:14:39;13.07;;;3.08;;
13202;SDS011;6666;51.626;7.530;2023-02-01T02:17:13;12.30;;;2.20;;
13202;SDS011;6666;51.626;7.530;2023-02-01T02:26:19;8.80;;;1.90;;
13202;SDS011;6666;51.626;7.530;2023-02-01T02:29:09;10.45;;;2.55;;
13202;SDS011;6666;51.626;7.530;2023-02-01T02:32:07;12.20;;;2.40;;
13202;SDS011;6666;51.626;7.530;2023-02-01T02:34:52;14.77;;;3.03;;
13202;SDS011;6666;51.626;7.530;2023-02-01T02:37:25;13.63;;;3.53;;
13202;SDS011;6666;51.626;7.530;2023-02-01T02:40:04;10.73;;;2.80;;
13202;SDS011;6666;51.626;7.530;2023-02-01T02:42:41;22.88;;;3.42;;
13202;SDS011;6666;51.626;7.530;2023-02-01T02:45:34;10.20;;;2.78;;
13202;SDS011;6666;51.626;7.530;2023-02-01T02:48:28;12.20;;;3.10;;
13202;SDS011;6666;51.626;7.530;2023-02-01T02:51:07;8.00;;;2.75;;
13202;SDS011;6666;51.626;7.530;2023-02-01T02:53:58;12.00;;;3.08;;
13202;SDS011;6666;51.626;7.530;2023-02-01T02:56:47;10.00;;;2.10;;
13202;SDS011;6666;51.626;7.530;2023-02-01T02:59:35;14.82;;;2.40;;
13202;SDS011;6666;51.626;7.530;2023-02-01T03:31:50;13.13;;;2.53;;
13202;SDS011;6666;51.626;7.530;2023-02-01T03:34:20;8.90;;;2.22;;
13202;SDS011;6666;51.626;7.530;2023-02-01T03:36:49;12.68;;;2.50;;
13202;SDS011;6666;51.626;7.530;2023-02-01T03:39:22;15.27;;;2.72;;
13202;SDS011;6666;51.626;7.530;2023-02-01T03:41:55;9.40;;;1.83;;
13202;SDS011;6666;51.626;7.530;2023-02-01T03:44:29;10.98;;;2.45;;
13202;SDS011;6666;51.626;7.530;2023-02-01T03:47:03;11.18;;;2.70;;
13202;SDS011;6666;51.626;7.530;2023-02-01T03:49:36;8.80;;;2.33;;
13202;SDS011;6666;51.626;7.530;2023-02-01T03:52:10;15.93;;;2.10;;
13202;SDS011;6666;51.626;7.530;2023-02-01T03:54:43;11.45;;;2.33;;
13202;SDS011;6666;51.626;7.530;2023-02-01T03:57:12;7.18;;;2.03;;
13202;SDS011;6666;51.626;7.530;2023-02-01T03:59:44;16.05;;;2.97;;
13202;SDS011;6666;51.626;7.530;2023-02-01T04:02:14;9.35;;;2.47;;
13202;SDS011;6666;51.626;7.530;2023-02-01T04:04:43;11.15;;;2.30;;
13202;SDS011;6666;51.626;7.530;2023-02-01T04:07:15;14.00;;;2.90;;
13202;SDS011;6666;51.626;7.530;2023-02-01T04:09:43;10.52;;;2.33;;
13202;SDS011;6666;51.626;7.530;2023-02-01T04:12:11;11.43;;;2.30;;
13202;SDS011;6666;51.626;7.530;2023-02-01T04:14:40;11.57;;;2.28;;
13202;SDS011;6666;51.626;7.530;2023-02-01T04:17:08;13.27;;;2.78;;
13202;SDS011;6666;51.626;7.530;2023-02-01T04:19:38;10.90;;;2.28;;
13202;SDS011;6666;51.626;7.530;2023-02-01T04:22:06;12.13;;;2.40;;
13202;SDS011;6666;51.626;7.530;2023-02-01T04:24:34;9.38;;;2.13;;
13202;SDS011;6666;51.626;7.530;2023-02-01T04:27:04;15.35;;;2.60;;
13202;SDS011;6666;51.626;7.530;2023-02-01T04:29:32;13.50;;;3.13;;
13202;SDS011;6666;51.626;7.530;2023-02-01T04:32:01;13.98;;;3.90;;
13202;SDS011;6666;51.626;7.530;2023-02-01T04:34:29;17.70;;;2.45;;
13202;SDS011;6666;51.626;7.530;2023-02-01T04:36:59;9.55;;;2.47;;
13202;SDS011;6666;51.626;7.530;2023-02-01T04:39:27;11.48;;;2.50;;
13202;SDS011;6666;51.626;7.530;2023-02-01T04:41:55;6.85;;;2.65;;
13202;SDS011;6666;51.626;7.530;2023-02-01T04:44:23;12.40;;;2.75;;
13202;SDS011;6666;51.626;7.530;2023-02-01T04:46:53;9.88;;;2.40;;
13202;SDS011;6666;51.626;7.530;2023-02-01T04:49:21;14.77;;;2.90;;
13202;SDS011;6666;51.626;7.530;2023-02-01T04:51:51;14.77;;;2.70;;
13202;SDS011;6666;51.626;7.530;2023-02-01T04:54:21;18.25;;;2.60;;
13202;SDS011;6666;51.626;7.530;2023-02-01T04:56:49;10.48;;;2.67;;
13202;SDS011;6666;51.626;7.530;2023-02-01T04:59:17;12.15;;;2.70;;
13202;SDS011;6666;51.626;7.530;2023-02-01T05:01:46;15.93;;;2.67;;
13202;SDS011;6666;51.626;7.530;2023-02-01T05:04:14;12.63;;;2.53;;
13202;SDS011;6666;51.626;7.530;2023-02-01T05:06:44;9.27;;;2.10;;
13202;SDS011;6666;51.626;7.530;2023-02-01T05:09:13;13.32;;;3.08;;
13202;SDS011;6666;51.626;7.530;2023-02-01T05:11:43;22.92;;;2.67;;
13202;SDS011;6666;51.626;7.530;2023-02-01T05:14:28;11.13;;;2.70;;
13202;SDS011;6666;51.626;7.530;2023-02-01T05:16:57;11.20;;;2.90;;
13202;SDS011;6666;51.626;7.530;2023-02-01T05:19:25;15.13;;;2.97;;
13202;SDS011;6666;51.626;7.530;2023-02-01T05:22:44;18.02;;;3.20;;
13202;SDS011;6666;51.626;7.530;2023-02-01T05:25:13;13.80;;;2.60;;
13202;SDS011;6666;51.626;7.530;2023-02-01T05:27:42;10.90;;;2.92;;
13202;SDS011;6666;51.626;7.530;2023-02-01T05:30:11;11.90;;;3.05;;
13202;SDS011;6666;51.626;7.530;2023-02-01T05:32:40;10.57;;;2.75;;
13202;SDS011;6666;51.626;7.530;2023-02-01T05:35:08;15.18;;;2.70;;
13202;SDS011;6666;51.626;7.530;2023-02-01T05:37:37;17.33;;;3.20;;
13202;SDS011;6666;51.626;7.530;2023-02-01T05:40:06;14.67;;;3.20;;
13202;SDS011;6666;51.626;7.530;2023-02-01T05:42:35;13.77;;;2.30;;
13202;SDS011;6666;51.626;7.530;2023-02-01T05:45:05;15.05;;;2.75;;
13202;SDS011;6666;51.626;7.530;2023-02-01T05:47:35;12.15;;;2.60;;
13202;SDS011;6666;51.626;7.530;2023-02-01T05:50:04;15.63;;;3.05;;
13202;SDS011;6666;51.626;7.530;2023-02-01T05:52:34;11.93;;;2.72;;
13202;SDS011;6666;51.626;7.530;2023-02-01T05:55:02;11.18;;;2.60;;
13202;SDS011;6666;51.626;7.530;2023-02-01T05:57:31;18.15;;;3.10;;
13202;SDS011;6666;51.626;7.530;2023-02-01T05:59:59;14.82;;;2.72;;
13202;SDS011;6666;51.626;7.530;2023-02-01T06:02:39;11.02;;;2.70;;
13202;SDS011;6666;51.626;7.530;2023-02-01T06:05:07;14.80;;;3.00;;
13202;SDS011;6666;51.626;7.530;2023-02-01T06:07:36;9.68;;;2.72;;
13202;SDS011;6666;51.626;7.530;2023-02-01T06:10:04;9.93;;;2.50;;
13202;SDS011;6666;51.626;7.530;2023-02-01T06:12:33;10.60;;;2.80;;
13202;SDS011;6666;51.626;7.530;2023-02-01T06:15:01;10.88;;;4.00;;
13202;SDS011;6666;51.626;7.530;2023-02-01T06:17:30;14.48;;;3.30;;
13202;SDS011;6666;51.626;7.530;2023-02-01T06:20:00;11.20;;;3.23;;
13202;SDS011;6666;51.626;7.530;2023-02-01T06:22:28;17.38;;;2.58;;
13202;SDS011;6666;51.626;7.530;2023-02-01T06:24:56;14.85;;;3.47;;
13202;SDS011;6666;51.626;7.530;2023-02-01T06:27:25;11.80;;;2.63;;
13202;SDS011;6666;51.626;7.530;2023-02-01T06:29:54;10.00;;;2.40;;
13202;SDS011;6666;51.626;7.530;2023-02-01T06:32:22;13.80;;;2.55;;
13202;SDS011;6666;51.626;7.530;2023-02-01T06:34:51;12.25;;;2.70;;
13202;SDS011;6666;51.626;7.530;2023-02-01T06:37:20;9.05;;;2.45;;
13202;SDS011;6666;51.626;7.530;2023-02-01T06:39:49;13.38;;;2.70;;
13202;SDS011;6666;51.626;7.530;2023-02-01T06:42:18;13.30;;;2.70;;
13202;SDS011;6666;51.626;7.530;2023-02-01T06:44:46;11.90;;;2.50;;
13202;SDS011;6666;51.626;7.530;2023-02-01T06:47:14;22.35;;;3.17;;
13202;SDS011;6666;51.626;7.530;2023-02-01T06:49:42;9.30;;;2.47;;
13202;SDS011;6666;51.626;7.530;2023-02-01T06:52:11;10.32;;;2.85;;
13202;SDS011;6666;51.626;7.530;2023-02-01T06:54:40;19.17;;;3.97;;
13202;SDS011;6666;51.626;7.530;2023-02-01T06:57:09;16.95;;;2.95;;
13202;SDS011;6666;51.626;7.530;2023-02-01T06:59:37;12.40;;;3.25;;
13202;SDS011;6666;51.626;7.530;2023-02-01T07:02:08;18.40;;;4.35;;
13202;SDS011;6666;51.626;7.530;2023-02-01T07:04:37;15.38;;;3.65;;
13202;SDS011;6666;51.626;7.530;2023-02-01T07:07:05;11.27;;;2.33;;
13202;SDS011;6666;51.626;7.530;2023-02-01T07:09:34;14.70;;;3.70;;
13202;SDS011;6666;51.626;7.530;2023-02-01T07:12:04;19.90;;;3.55;;
13202;SDS011;6666;51.626;7.530;2023-02-01T07:14:33;10.27;;;2.85;;
13202;SDS011;6666;51.626;7.530;2023-02-01T07:17:03;12.70;;;3.10;;
13202;SDS011;6666;51.626;7.530;2023-02-01T07:19:31;14.45;;;3.17;;
13202;SDS011;6666;51.626;7.530;2023-02-01T07:21:59;18.38;;;2.70;;
13202;SDS011;6666;51.626;7.530;2023-02-01T07:24:28;10.40;;;3.10;;
13202;SDS011;6666;51.626;7.530;2023-02-01T07:26:57;19.55;;;3.20;;
13202;SDS011;6666;51.626;7.530;2023-02-01T07:29:28;16.98;;;3.40;;
13202;SDS011;6666;51.626;7.530;2023-02-01T07:31:56;15.50;;;2.65;;
13202;SDS011;6666;51.626;7.530;2023-02-01T07:34:25;14.02;;;2.70;;
13202;SDS011;6666;51.626;7.530;2023-02-01T07:36:53;12.77;;;2.97;;
13202;SDS011;6666;51.626;7.530;2023-02-01T07:39:22;15.67;;;3.20;;
13202;SDS011;6666;51.626;7.530;2023-02-01T07:41:51;16.25;;;3.35;;
13202;SDS011;6666;51.626;7.530;2023-02-01T07:44:19;13.60;;;2.50;;
13202;SDS011;6666;51.626;7.530;2023-02-01T07:46:50;18.75;;;4.05;;
13202;SDS011;6666;51.626;7.530;2023-02-01T07:49:18;11.73;;;2.53;;
13202;SDS011;6666;51.626;7.530;2023-02-01T07:51:46;13.87;;;3.07;;
13202;SDS011;6666;51.626;7.530;2023-02-01T07:54:17;14.50;;;3.58;;
13202;SDS011;6666;51.626;7.530;2023-02-01T07:56:45;8.90;;;2.30;;
13202;SDS011;6666;51.626;7.530;2023-02-01T07:59:13;15.98;;;2.60;;
13202;SDS011;6666;51.626;7.530;2023-02-01T08:01:42;18.55;;;3.65;;
13202;SDS011;6666;51.626;7.530;2023-02-01T08:04:11;11.32;;;3.30;;
13202;SDS011;6666;51.626;7.530;2023-02-01T08:06:41;11.07;;;3.15;;
13202;SDS011;6666;51.626;7.530;2023-02-01T08:09:09;11.95;;;2.78;;
13202;SDS011;6666;51.626;7.530;2023-02-01T08:11:38;15.38;;;3.08;;
13202;SDS011;6666;51.626;7.530;2023-02-01T08:14:06;8.52;;;2.90;;
13202;SDS011;6666;51.626;7.530;2023-02-01T08:16:35;21.13;;;3.67;;
13202;SDS011;6666;51.626;7.530;2023-02-01T08:19:04;10.98;;;3.25;;
13202;SDS011;6666;51.626;7.530;2023-02-01T08:21:34;16.50;;;3.60;;
13202;SDS011;6666;51.626;7.530;2023-02-01T08:24:04;16.27;;;3.28;;
13202;SDS011;6666;51.626;7.530;2023-02-01T08:26:33;16.52;;;3.50;;
13202;SDS011;6666;51.626;7.530;2023-02-01T08:29:03;14.35;;;2.83;;
13202;SDS011;6666;51.626;7.530;2023-02-01T08:31:32;12.63;;;3.35;;
13202;SDS011;6666;51.626;7.530;2023-02-01T08:34:02;16.52;;;2.90;;
13202;SDS011;6666;51.626;7.530;2023-02-01T08:36:31;17.42;;;3.63;;
13202;SDS011;6666;51.626;7.530;2023-02-01T08:39:01;12.23;;;3.60;;
13202;SDS011;6666;51.626;7.530;2023-02-01T08:41:35;13.18;;;3.58;;
13202;SDS011;6666;51.626;7.530;2023-02-01T08:44:04;15.93;;;3.20;;
13202;SDS011;6666;51.626;7.530;2023-02-01T08:46:32;10.70;;;2.80;;
13202;SDS011;6666;51.626;7.530;2023-02-01T08:49:01;19.50;;;3.50;;
13202;SDS011;6666;51.626;7.530;2023-02-01T08:51:29;10.00;;;3.40;;
13202;SDS011;6666;51.626;7.530;2023-02-01T08:53:57;23.52;;;3.50;;
13202;SDS011;6666;51.626;7.530;2023-02-01T08:56:28;14.10;;;3.77;;
13202;SDS011;6666;51.626;7.530;2023-02-01T08:58:56;15.30;;;3.10;;
13202;SDS011;6666;51.626;7.530;2023-02-01T09:01:25;18.23;;;3.50;;
13202;SDS011;6666;51.626;7.530;2023-02-01T09:03:53;14.55;;;2.92;;
13202;SDS011;6666;51.626;7.530;2023-02-01T09:06:22;11.13;;;2.70;;
13202;SDS011;6666;51.626;7.530;2023-02-01T09:08:50;14.90;;;3.03;;
13202;SDS011;6666;51.626;7.530;2023-02-01T09:11:18;12.87;;;2.80;;
13202;SDS011;6666;51.626;7.530;2023-02-01T09:13:48;17.80;;;3.37;;
13202;SDS011;6666;51.626;7.530;2023-02-01T09:16:16;19.73;;;3.47;;
13202;SDS011;6666;51.626;7.530;2023-02-01T09:18:45;16.80;;;3.23;;
13202;SDS011;6666;51.626;7.530;2023-02-01T09:21:33;14.88;;;3.30;;
13202;SDS011;6666;51.626;7.530;2023-02-01T09:24:01;15.65;;;3.65;;
13202;SDS011;6666;51.626;7.530;2023-02-01T09:26:30;13.05;;;3.20;;
13202;SDS011;6666;51.626;7.530;2023-02-01T09:29:00;13.77;;;3.60;;
13202;SDS011;6666;51.626;7.530;2023-02-01T09:31:29;15.48;;;2.88;;
13202;SDS011;6666;51.626;7.530;2023-02-01T09:33:58;13.07;;;3.70;;
13202;SDS011;6666;51.626;7.530;2023-02-01T09:36:26;11.75;;;3.25;;
13202;SDS011;6666;51.626;7.530;2023-02-01T09:38:56;11.70;;;3.00;;
13202;SDS011;6666;51.626;7.530;2023-02-01T09:44:18;16.10;;;3.63;;
13202;SDS011;6666;51.626;7.530;2023-02-01T09:47:10;11.80;;;3.33;;
13202;SDS011;6666;51.626;7.530;2023-02-01T09:49:43;11.02;;;3.15;;
13202;SDS011;6666;51.626;7.530;2023-02-01T09:52:20;9.65;;;3.13;;
13202;SDS011;6666;51.626;7.530;2023-02-01T09:54:54;16.40;;;3.20;;
13202;SDS011;6666;51.626;7.530;2023-02-01T09:57:28;10.50;;;2.67;;
13202;SDS011;6666;51.626;7.530;2023-02-01T10:00:12;9.02;;;2.70;;
13202;SDS011;6666;51.626;7.530;2023-02-01T10:02:46;14.05;;;3.22;;
13202;SDS011;6666;51.626;7.530;2023-02-01T10:05:15;14.93;;;3.50;;
13202;SDS011;6666;51.626;7.530;2023-02-01T10:07:51;12.00;;;3.28;;
13202;SDS011;6666;51.626;7.530;2023-02-01T10:10:29;11.00;;;3.40;;
13202;SDS011;6666;51.626;7.530;2023-02-01T10:13:09;12.43;;;2.92;;
13202;SDS011;6666;51.626;7.530;2023-02-01T10:15:51;18.95;;;3.10;;
13202;SDS011;6666;51.626;7.530;2023-02-01T10:18:30;19.60;;;4.10;;
13202;SDS011;6666;51.626;7.530;2023-02-01T10:21:09;17.10;;;3.00;;
13202;SDS011;6666;51.626;7.530;2023-02-01T10:23:52;13.13;;;2.80;;
13202;SDS011;6666;51.626;7.530;2023-02-01T10:26:44;15.32;;;3.20;;
13202;SDS011;6666;51.626;7.530;2023-02-01T10:29:18;12.68;;;3.28;;
13202;SDS011;6666;51.626;7.530;2023-02-01T10:31:49;15.77;;;3.30;;
13202;SDS011;6666;51.626;7.530;2023-02-01T10:34:19;12.57;;;3.27;;
13202;SDS011;6666;51.626;7.530;2023-02-01T10:36:50;15.00;;;3.80;;
13202;SDS011;6666;51.626;7.530;2023-02-01T10:39:21;11.27;;;3.40;;
13202;SDS011;6666;51.626;7.530;2023-02-01T10:41:50;14.73;;;3.97;;
13202;SDS011;6666;51.626;7.530;2023-02-01T10:44:19;15.30;;;4.13;;
13202;SDS011;6666;51.626;7.530;2023-02-01T10:46:52;15.27;;;3.53;;
13202;SDS011;6666;51.626;7.530;2023-02-01T10:49:22;14.52;;;3.70;;
13202;SDS011;6666;51.626;7.530;2023-02-01T10:51:57;11.65;;;3.80;;
13202;SDS011;6666;51.626;7.530;2023-02-01T10:54:33;14.98;;;3.30;;
13202;SDS011;6666;51.626;7.530;2023-02-01T10:57:06;17.30;;;3.50;;
13202;SDS011;6666;51.626;7.530;2023-02-01T10:59:35;10.90;;;3.30;;
13202;SDS011;6666;51.626;7.530;2023-02-01T11:02:14;10.57;;;3.00;;
13202;SDS011;6666;51.626;7.530;2023-02-01T11:04:47;13.07;;;3.00;;
13202;SDS011;6666;51.626;7.530;2023-02-01T11:07:17;12.40;;;3.77;;
13202;SDS011;6666;51.626;7.530;2023-02-01T11:09:51;12.00;;;3.47;;
13202;SDS011;6666;51.626;7.530;2023-02-01T11:12:31;9.95;;;2.50;;
13202;SDS011;6666;51.626;7.530;2023-02-01T11:15:03;17.08;;;4.05;;
13202;SDS011;6666;51.626;7.530;2023-02-01T11:17:44;12.73;;;2.90;;
13202;SDS011;6666;51.626;7.530;2023-02-01T11:20:15;11.57;;;3.05;;
13202;SDS011;6666;51.626;7.530;2023-02-01T11:22:47;12.68;;;2.60;;
13202;SDS011;6666;51.626;7.530;2023-02-01T11:25:20;15.40;;;2.88;;
13202;SDS011;6666;51.626;7.530;2023-02-01T11:27:50;17.02;;;4.03;;
13202;SDS011;6666;51.626;7.530;2023-02-01T11:30:27;15.10;;;3.72;;
13202;SDS011;6666;51.626;7.530;2023-02-01T11:33:01;13.18;;;3.30;;
13202;SDS011;6666;51.626;7.530;2023-02-01T11:35:32;12.38;;;2.63;;
13202;SDS011;6666;51.626;7.530;2023-02-01T11:38:10;10.40;;;2.80;;
13202;SDS011;6666;51.626;7.530;2023-02-01T11:40:45;14.77;;;3.42;;
13202;SDS011;6666;51.626;7.530;2023-02-01T11:43:14;9.35;;;3.10;;
13202;SDS011;6666;51.626;7.530;2023-02-01T11:45:53;14.60;;;3.40;;
13202;SDS011;6666;51.626;7.530;2023-02-01T11:48:26;8.93;;;3.40;;
13202;SDS011;6666;51.626;7.530;2023-02-01T11:51:10;13.70;;;3.08;;
13202;SDS011;6666;51.626;7.530;2023-02-01T11:53:58;13.85;;;3.40;;
13202;SDS011;6666;51.626;7.530;2023-02-01T11:56:41;12.18;;;2.80;;
13202;SDS011;6666;51.626;7.530;2023-02-01T11:59:19;13.07;;;3.50;;
13202;SDS011;6666;51.626;7.530;2023-02-01T12:02:11;13.68;;;3.92;;
13202;SDS011;6666;51.626;7.530;2023-02-01T12:05:15;11.60;;;3.15;;
13202;SDS011;6666;51.626;7.530;2023-02-01T12:08:00;15.68;;;3.50;;
13202;SDS011;6666;51.626;7.530;2023-02-01T12:10:44;10.70;;;3.30;;
13202;SDS011;6666;51.626;7.530;2023-02-01T12:13:25;20.42;;;7.50;;
13202;SDS011;6666;51.626;7.530;2023-02-01T12:16:08;11.15;;;4.05;;
13202;SDS011;6666;51.626;7.530;2023-02-01T12:22:03;10.77;;;3.90;;
13202;SDS011;6666;51.626;7.530;2023-02-01T12:24:48;8.95;;;3.45;;
13202;SDS011;6666;51.626;7.530;2023-02-01T12:27:46;17.35;;;3.55;;
13202;SDS011;6666;51.626;7.530;2023-02-01T12:30:33;18.98;;;4.60;;
13202;SDS011;6666;51.626;7.530;2023-02-01T12:33:18;8.32;;;3.45;;
13202;SDS011;6666;51.626;7.530;2023-02-01T12:35:59;15.75;;;3.80;;
13202;SDS011;6666;51.626;7.530;2023-02-01T12:38:44;19.25;;;3.63;;
13202;SDS011;6666;51.626;7.530;2023-02-01T12:41:32;12.13;;;2.85;;
13202;SDS011;6666;51.626;7.530;2023-02-01T12:44:17;12.73;;;3.40;;
13202;SDS011;6666;51.626;7.530;2023-02-01T12:46:55;14.00;;;2.85;;
13202;SDS011;6666;51.626;7.530;2023-02-01T12:49:29;12.48;;;3.10;;
13202;SDS011;6666;51.626;7.530;2023-02-01T12:52:06;12.85;;;3.35;;
13202;SDS011;6666;51.626;7.530;2023-02-01T12:54:42;9.68;;;3.10;;
13202;SDS011;6666;51.626;7.530;2023-02-01T12:57:15;15.68;;;3.20;;
13202;SDS011;6666;51.626;7.530;2023-02-01T12:59:47;11.95;;;2.97;;
13202;SDS011;6666;51.626;7.530;2023-02-01T13:02:19;10.60;;;3.00;;
13202;SDS011;6666;51.626;7.530;2023-02-01T13:04:57;12.60;;;3.50;;
13202;SDS011;6666;51.626;7.530;2023-02-01T13:07:31;12.53;;;3.23;;
13202;SDS011;6666;51.626;7.530;2023-02-01T13:10:12;19.00;;;3.28;;
13202;SDS011;6666;51.626;7.530;2023-02-01T13:12:44;10.63;;;3.25;;
13202;SDS011;6666;51.626;7.530;2023-02-01T13:15:21;12.77;;;3.03;;
13202;SDS011;6666;51.626;7.530;2023-02-01T13:17:54;13.48;;;2.88;;
13202;SDS011;6666;51.626;7.530;2023-02-01T13:20:28;8.40;;;2.72;;
13202;SDS011;6666;51.626;7.530;2023-02-01T13:23:00;11.40;;;3.08;;
13202;SDS011;6666;51.626;7.530;2023-02-01T13:25:35;11.80;;;3.22;;
13202;SDS011;6666;51.626;7.530;2023-02-01T13:28:10;14.98;;;3.13;;
13202;SDS011;6666;51.626;7.530;2023-02-01T13:30:57;14.40;;;3.00;;
13202;SDS011;6666;51.626;7.530;2023-02-01T13:33:42;14.80;;;3.38;;
13202;SDS011;6666;51.626;7.530;2023-02-01T13:36:32;16.60;;;2.75;;
13202;SDS011;6666;51.626;7.530;2023-02-01T13:39:24;15.40;;;3.13;;
13202;SDS011;6666;51.626;7.530;2023-02-01T13:42:17;9.70;;;2.45;;
13202;SDS011;6666;51.626;7.530;2023-02-01T13:44:48;11.45;;;2.70;;
13202;SDS011;6666;51.626;7.530;2023-02-01T13:47:22;13.68;;;3.25;;
13202;SDS011;6666;51.626;7.530;2023-02-01T13:49:53;11.75;;;2.50;;
13202;SDS011;6666;51.626;7.530;2023-02-01T13:52:29;17.15;;;3.10;;
13202;SDS011;6666;51.626;7.530;2023-02-01T13:55:14;8.32;;;2.60;;
13202;SDS011;6666;51.626;7.530;2023-02-01T13:58:00;11.07;;;2.70;;
13202;SDS011;6666;51.626;7.530;2023-02-01T14:00:37;12.43;;;4.00;;
13202;SDS011;6666;51.626;7.530;2023-02-01T14:03:08;13.20;;;2.97;;
13202;SDS011;6666;51.626;7.530;2023-02-01T14:08:44;11.02;;;2.60;;
13202;SDS011;6666;51.626;7.530;2023-02-01T14:11:40;10.75;;;2.58;;
13202;SDS011;6666;51.626;7.530;2023-02-01T14:23:22;12.50;;;2.65;;
13202;SDS011;6666;51.626;7.530;2023-02-01T14:26:08;13.50;;;3.30;;
13202;SDS011;6666;51.626;7.530;2023-02-01T14:31:34;13.38;;;2.50;;
13202;SDS011;6666;51.626;7.530;2023-02-01T14:34:26;16.30;;;2.80;;
13202;SDS011;6666;51.626;7.530;2023-02-01T14:37:10;12.07;;;3.85;;
13202;SDS011;6666;51.626;7.530;2023-02-01T14:39:58;13.37;;;3.10;;
13202;SDS011;6666;51.626;7.530;2023-02-01T14:42:29;10.63;;;4.05;;
13202;SDS011;6666;51.626;7.530;2023-02-01T14:51:14;10.10;;;2.55;;
13202;SDS011;6666;51.626;7.530;2023-02-01T14:53:44;9.40;;;2.60;;
13202;SDS011;6666;51.626;7.530;2023-02-01T14:56:14;8.80;;;2.60;;
13202;SDS011;6666;51.626;7.530;2023-02-01T14:58:48;15.07;;;3.80;;
13202;SDS011;6666;51.626;7.530;2023-02-01T15:01:22;12.60;;;2.90;;
13202;SDS011;6666;51.626;7.530;2023-02-01T15:03:55;12.50;;;2.90;;
13202;SDS011;6666;51.626;7.530;2023-02-01T15:06:29;9.20;;;3.20;;
13202;SDS011;6666;51.626;7.530;2023-02-01T15:09:02;19.15;;;3.33;;
13202;SDS011;6666;51.626;7.530;2023-02-01T15:11:32;13.73;;;3.70;;
13202;SDS011;6666;51.626;7.530;2023-02-01T15:14:20;13.90;;;3.15;;
13202;SDS011;6666;51.626;7.530;2023-02-01T15:16:49;20.03;;;7.60;;
13202;SDS011;6666;51.626;7.530;2023-02-01T15:19:22;27.63;;;7.47;;
13202;SDS011;6666;51.626;7.530;2023-02-01T15:21:52;27.23;;;8.40;;
13202;SDS011;6666;51.626;7.530;2023-02-01T15:24:22;18.48;;;6.13;;
13202;SDS011;6666;51.626;7.530;2023-02-01T15:26:52;18.23;;;5.23;;
13202;SDS011;6666;51.626;7.530;2023-02-01T15:29:22;15.10;;;3.85;;
13202;SDS011;6666;51.626;7.530;2023-02-01T15:31:54;19.63;;;4.97;;
13202;SDS011;6666;51.626;7.530;2023-02-01T15:34:23;12.20;;;3.10;;
13202;SDS011;6666;51.626;7.530;2023-02-01T15:37:12;12.90;;;3.27;;
13202;SDS011;6666;51.626;7.530;2023-02-01T15:42:34;16.50;;;3.20;;
13202;SDS011;6666;51.626;7.530;2023-02-01T15:45:03;11.27;;;2.60;;
13202;SDS011;6666;51.626;7.530;2023-02-01T15:47:32;7.93;;;3.05;;
13202;SDS011;6666;51.626;7.530;2023-02-01T15:50:03;8.40;;;2.67;;
13202;SDS011;6666;51.626;7.530;2023-02-01T15:52:34;12.70;;;2.50;;
13202;SDS011;6666;51.626;7.530;2023-02-01T15:55:05;14.90;;;3.30;;
13202;SDS011;6666;51.626;7.530;2023-02-01T15:57:36;13.07;;;3.13;;
13202;SDS011;6666;51.626;7.530;2023-02-01T16:00:07;14.80;;;3.20;;
13202;SDS011;6666;51.626;7.530;2023-02-01T16:02:53;13.70;;;2.90;;
13202;SDS011;6666;51.626;7.530;2023-02-01T16:05:31;13.70;;;2.67;;
13202;SDS011;6666;51.626;7.530;2023-02-01T16:08:03;14.95;;;3.30;;
13202;SDS011;6666;51.626;7.530;2023-02-01T16:10:38;13.00;;;3.28;;
13202;SDS011;6666;51.626;7.530;2023-02-01T16:13:07;14.43;;;3.25;;
13202;SDS011;6666;51.626;7.530;2023-02-01T16:15:36;16.00;;;3.30;;
13202;SDS011;6666;51.626;7.530;2023-02-01T16:18:04;10.90;;;2.72;;
13202;SDS011;6666;51.626;7.530;2023-02-01T16:20:35;14.70;;;3.30;;
13202;SDS011;6666;51.626;7.530;2023-02-01T16:23:05;17.23;;;2.97;;
13202;SDS011;6666;51.626;7.530;2023-02-01T16:25:35;12.02;;;2.55;;
13202;SDS011;6666;51.626;7.530;2023-02-01T16:28:04;7.40;;;2.30;;
13202;SDS011;6666;51.626;7.530;2023-02-01T16:30:33;17.38;;;3.58;;
13202;SDS011;6666;51.626;7.530;2023-02-01T16:33:02;11.70;;;3.20;;